Disclaimer

Please do not use the information listed here in-flight or in-navigation, as they are not provided to us by the airports but are provided by volunteers, so they might be outdated.

Search


Regions


Airport information page

No radio frequency information is available.

Airport informations:
Latitude: 13° 16' 26.35" S
Longitude: 035° 15' 58.54" E
Elevation: 4505 feet - 1373 meters
Operating hours: N/A
Operating agency: Civil government, landing fees and diplomatic clearance may be required
Timezone: UTC+2
Fuel: Jet A1+, Jet A1 with icing inhibitor.

80/87 octane gasoline, leaded, MIL-L-5572F (RED)

Runway information:
08/26 - 8300 x 148 feet< - >2530 x 45 meters

Recent METARs:
FQLC 160300Z 08007KT 6000 SCT001 BKN014 FEW020CB BKN070 18/18 Q1022 RMK TO ISO ALL/D
FQLC 160300Z 08007KT 6000 SCT001 BKN014 FEW020CB BKN070 18/18 Q1022 RMK TO ISO ALL/D

Airport on the map: